createdAt,value
2023-01-31T00:05:55.025Z,2.67
2023-01-31T00:12:57.199Z,2.35
2023-01-31T00:19:59.031Z,2.28
2023-01-31T00:27:00.818Z,2.03
2023-01-31T00:34:02.909Z,2.38
2023-01-31T00:41:04.895Z,2.13
2023-01-31T00:48:10.216Z,2.53
2023-01-31T00:55:12.165Z,2.13
2023-01-31T01:02:14.173Z,2.50
2023-01-31T01:09:17.542Z,1.92
2023-01-31T01:16:22.190Z,3.08
2023-01-31T01:23:23.958Z,2.10
2023-01-31T01:30:25.838Z,2.70
2023-01-31T01:37:27.664Z,2.20
2023-01-31T01:44:46.043Z,3.42
2023-01-31T01:51:48.751Z,1.70
2023-01-31T01:59:02.830Z,2.13
2023-01-31T02:06:05.135Z,3.08
2023-01-31T02:13:06.933Z,3.10
2023-01-31T02:20:24.171Z,2.70
2023-01-31T02:27:31.838Z,3.40
2023-01-31T02:34:38.398Z,2.35
2023-01-31T02:41:44.285Z,2.45
2023-01-31T02:49:34.395Z,2.90
2023-01-31T02:56:39.732Z,2.10
2023-01-31T03:03:41.656Z,2.40
2023-01-31T03:10:57.894Z,2.78
2023-01-31T03:18:05.829Z,2.15
2023-01-31T03:25:09.015Z,2.55
2023-01-31T03:32:16.273Z,1.88
2023-01-31T03:39:37.919Z,1.98
2023-01-31T03:46:44.606Z,1.95
2023-01-31T03:53:49.525Z,2.28
2023-01-31T04:00:51.957Z,2.08
2023-01-31T04:07:54.640Z,2.33
2023-01-31T04:14:59.013Z,2.05
2023-01-31T04:22:00.848Z,1.83
2023-01-31T04:29:03.117Z,2.13
2023-01-31T04:36:05.202Z,2.30
2023-01-31T04:43:06.881Z,1.65
2023-01-31T04:50:09.117Z,1.83
2023-01-31T04:57:10.904Z,1.77
2023-01-31T05:04:13.777Z,2.15
2023-01-31T05:11:15.459Z,2.38
2023-01-31T05:18:17.234Z,2.28
2023-01-31T05:25:19.140Z,2.97
2023-01-31T05:32:21.040Z,1.67
2023-01-31T05:39:22.686Z,1.52
2023-01-31T05:46:24.401Z,1.63
2023-01-31T05:53:26.202Z,1.90
2023-01-31T06:00:27.908Z,1.95
2023-01-31T06:07:29.546Z,2.05
2023-01-31T06:14:32.283Z,1.77
2023-01-31T06:21:34.035Z,3.17
2023-01-31T06:28:36.663Z,1.80
2023-01-31T06:35:38.545Z,1.77
2023-01-31T06:42:40.290Z,1.58
2023-01-31T06:49:41.950Z,3.00
2023-01-31T06:56:43.948Z,2.38
2023-01-31T07:03:45.581Z,1.40
2023-01-31T07:10:48.277Z,2.97
2023-01-31T07:17:49.941Z,4.03
2023-01-31T07:24:52.080Z,3.10
2023-01-31T07:31:54.719Z,3.30
2023-01-31T07:38:57.212Z,2.60
2023-01-31T07:45:58.939Z,2.40
2023-01-31T07:53:00.623Z,3.03
2023-01-31T08:00:02.749Z,2.67
2023-01-31T08:07:13.168Z,2.78
2023-01-31T08:14:14.865Z,3.00
2023-01-31T08:21:16.644Z,3.15
2023-01-31T08:28:18.634Z,2.30
2023-01-31T08:35:20.548Z,2.55
2023-01-31T08:42:22.415Z,2.35
2023-01-31T08:49:24.034Z,1.88
2023-01-31T08:56:26.355Z,2.78
2023-01-31T09:03:28.060Z,2.60
2023-01-31T09:10:30.156Z,2.13
2023-01-31T09:17:32.247Z,2.35
2023-01-31T09:24:34.012Z,2.10
2023-01-31T09:31:35.771Z,1.90
2023-01-31T09:38:37.674Z,2.13
2023-01-31T09:45:40.003Z,2.17
2023-01-31T09:52:41.656Z,2.80
2023-01-31T09:59:49.334Z,2.10
2023-01-31T10:07:01.507Z,3.00
2023-01-31T10:14:15.271Z,2.50
2023-01-31T10:21:18.456Z,2.38
2023-01-31T10:28:26.241Z,2.80
2023-01-31T10:35:37.157Z,2.22
2023-01-31T10:42:39.627Z,2.40
2023-01-31T10:49:44.492Z,2.50
2023-01-31T10:56:47.564Z,2.17
2023-01-31T11:03:53.713Z,2.97
2023-01-31T11:10:56.254Z,4.72
2023-01-31T11:17:59.474Z,3.03
2023-01-31T11:25:01.981Z,2.50
2023-01-31T11:32:05.503Z,3.00
2023-01-31T11:39:34.594Z,2.78
2023-01-31T11:46:54.390Z,3.50
2023-01-31T11:53:56.180Z,3.90
2023-01-31T12:01:02.460Z,4.28
2023-01-31T12:08:04.341Z,2.55
2023-01-31T12:15:14.522Z,3.78
2023-01-31T12:22:20.645Z,3.30
2023-01-31T12:29:41.201Z,3.83
2023-01-31T12:37:10.261Z,3.97
2023-01-31T12:44:48.202Z,2.75
2023-01-31T12:52:17.618Z,6.55
2023-01-31T12:59:47.593Z,3.05
2023-01-31T13:06:54.457Z,2.90
2023-01-31T13:13:57.739Z,4.78
2023-01-31T13:21:01.974Z,4.68
2023-01-31T13:28:23.695Z,5.22
2023-01-31T13:35:33.382Z,3.58
2023-01-31T13:42:35.337Z,4.97
2023-01-31T13:49:39.084Z,3.58
2023-01-31T13:56:41.006Z,5.05
2023-01-31T14:04:14.665Z,3.28
2023-01-31T14:11:21.982Z,4.32
2023-01-31T14:18:43.388Z,4.50
2023-01-31T14:25:45.122Z,3.88
2023-01-31T14:33:07.148Z,2.95
2023-01-31T14:40:11.768Z,3.95
2023-01-31T14:47:26.152Z,3.67
2023-01-31T14:54:37.588Z,3.13
2023-01-31T15:01:39.605Z,4.03
2023-01-31T15:08:43.553Z,3.88
2023-01-31T15:15:45.142Z,3.95
2023-01-31T15:22:46.838Z,3.78
2023-01-31T15:30:05.218Z,3.60
2023-01-31T15:37:27.315Z,5.28
2023-01-31T15:44:29.265Z,3.67
2023-01-31T15:51:30.885Z,2.88
2023-01-31T15:58:32.596Z,3.70
2023-01-31T16:05:36.206Z,4.00
2023-01-31T16:12:40.528Z,4.25
2023-01-31T16:19:42.153Z,4.68
2023-01-31T16:27:09.231Z,5.35
2023-01-31T16:34:25.448Z,6.78
2023-01-31T16:41:39.510Z,5.53
2023-01-31T16:48:41.935Z,4.57
2023-01-31T16:55:43.665Z,6.22
2023-01-31T17:02:45.335Z,5.03
2023-01-31T17:09:47.104Z,6.68
2023-01-31T17:16:52.591Z,6.22
2023-01-31T17:23:54.284Z,6.93
2023-01-31T17:30:55.991Z,5.53
2023-01-31T17:37:57.862Z,5.60
2023-01-31T17:44:59.519Z,5.70
2023-01-31T17:52:02.117Z,6.60
2023-01-31T17:59:12.258Z,6.45
2023-01-31T18:06:16.883Z,4.43
2023-01-31T18:13:18.980Z,5.53
2023-01-31T18:20:20.861Z,5.43
2023-01-31T18:27:22.659Z,7.10
2023-01-31T18:34:24.825Z,5.10
2023-01-31T18:41:26.724Z,4.65
2023-01-31T18:48:29.223Z,3.42
2023-01-31T18:55:30.921Z,4.40
2023-01-31T19:02:32.681Z,4.40
2023-01-31T19:09:35.331Z,4.28
2023-01-31T19:16:37.737Z,4.63
2023-01-31T19:23:39.551Z,4.10
2023-01-31T19:30:41.385Z,2.40
2023-01-31T19:37:43.219Z,1.77
2023-01-31T19:44:44.906Z,2.10
2023-01-31T19:51:46.607Z,1.70
2023-01-31T19:58:48.174Z,1.40
2023-01-31T20:05:50.078Z,2.40
2023-01-31T20:12:51.708Z,1.67
2023-01-31T20:19:53.363Z,2.13
2023-01-31T20:26:55.342Z,2.35
2023-01-31T20:33:57.229Z,2.40
2023-01-31T20:40:59.178Z,2.30
2023-01-31T20:48:00.939Z,2.13
2023-01-31T20:55:02.618Z,2.42
2023-01-31T21:02:04.419Z,2.58
2023-01-31T21:09:06.139Z,2.20
2023-01-31T21:16:08.314Z,2.33
2023-01-31T21:23:10.142Z,2.25
2023-01-31T21:30:11.985Z,2.33
2023-01-31T21:37:13.696Z,3.90
2023-01-31T21:44:15.319Z,2.85
2023-01-31T21:51:17.935Z,2.03
2023-01-31T21:58:27.336Z,1.90
2023-01-31T22:05:29.173Z,1.27
2023-01-31T22:12:30.890Z,2.47
2023-01-31T22:19:32.660Z,1.40
2023-01-31T22:26:36.299Z,10.05
2023-01-31T22:33:39.235Z,1.88
2023-01-31T22:40:45.032Z,1.73
2023-01-31T22:47:46.748Z,1.67
2023-01-31T22:54:48.363Z,1.77
2023-01-31T23:01:50.053Z,2.78
2023-01-31T23:08:51.945Z,1.98
2023-01-31T23:15:53.896Z,2.72
2023-01-31T23:22:56.517Z,2.30
2023-01-31T23:29:58.243Z,4.13
2023-01-31T23:36:59.909Z,2.60
2023-01-31T23:44:01.544Z,2.78
2023-01-31T23:51:04.259Z,2.03
2023-01-31T23:58:06.027Z,2.28
